Dunbridge, Ohio
Current Conditions -  °F | °C
As of 12:53 PM on Wednesday 28 Jan 2015 (Local Time) from KTDZ Reporting Station
Clear Clear  
Wind Chill: 16°   Ceiling: Unl
Heat Index: 24°   Visibility: 10mi
Dew Point: 13°   Wind: 7mph
Humidity: 62%   Direction: 200°SSW
Pressure: 30.35"   Gusts: NA
Location:  41.46°N, 83.61°W
Report Text: KTDZ 281753Z AUTO 20006KT 10SM CLR M04/M11 A3035 RMK AO2 SLP289 I6000 T10441106 11044 21139 58010 TSNO
Loading
Personal Weather Stations






























Interactive Weather Map New forecast layout! Learn more

10-Day Weather Forecast

Advertisements
Track Severe Weather on mobile